This is the latest recevied weather packets stored in our database for station/object 9M4GHZ-13. If no packets are shown the sender has not sent any weather packets the latest 1 day(s).
| Time | Temp. | Humidity | Pressure | Rain* | Wind** | Luminosity | Snow |
|---|---|---|---|---|---|---|---|
| 1778060405 | 30.56° C | 72% | 1005.3 hPa | - | - | - | - |
| 1778059805 | 31.11° C | 70% | 1005.1 hPa | - | - | - | - |
| 1778058605 | 31.11° C | 69% | 1004.7 hPa | - | - | - | - |
| 1778058005 | 31.11° C | 70% | 1004.7 hPa | - | - | - | - |
| 1778056805 | 31.11° C | 71% | 1005.2 hPa | - | - | - | - |
| 1778055605 | 30.56° C | 71% | 1005.1 hPa | - | - | - | - |
| 1778055005 | 30.56° C | 76% | 1005.3 hPa | - | - | - | - |
| 1778052605 | 28.89° C | 81% | 1005.6 hPa | - | - | - | - |
| 1778048405 | 26.67° C | 94% | 1006 hPa | - | - | - | - |
| 1778047206 | 26.11° C | 94% | 1006.6 hPa | - | - | - | - |
| 1778046605 | 26.11° C | 94% | 1007 hPa | - | - | - | - |
| 1778046005 | 26.11° C | 93% | 1006.9 hPa | - | - | - | - |
| 1778045405 | 26.11° C | 91% | 1007.3 hPa | - | - | - | - |
| 1778044205 | 30° C | 72% | 1007.5 hPa | - | - | - | - |
| 1778043606 | 30.56° C | 71% | 1007.4 hPa | - | - | - | - |
| 1778042405 | 32.22° C | 66% | 1007.5 hPa | - | - | - | - |
| 1778041805 | 31.67° C | 70% | 1007.5 hPa | - | - | - | - |
| 1778038805 | 30.56° C | 73% | 1008.3 hPa | - | - | - | - |
| 1778034006 | 31.67° C | 68% | 1009 hPa | - | - | - | - |
| 1778032205 | 31.11° C | 68% | 1009.1 hPa | - | - | - | - |
| 1778031605 | 30° C | 73% | 1009.3 hPa | - | - | - | - |
| 1778029805 | 29.44° C | 75% | 1009.1 hPa | - | - | - | - |
| 1778028604 | 28.33° C | 79% | 1009.1 hPa | - | - | - | - |
| 1778028005 | 28.33° C | 79% | 1009.2 hPa | - | - | - | - |
* Rain since midnight (hover to see other rain measurements)
** Current wind speed in m/s (hover to see current wind gust speed)